Tiempo atmosférico en la estación meteorológica de Fuente De Piedra, Málaga (423 m.)



Fecha
DESCASC
Temp. máxima en grados centígrados (hora)
DESCASC
Temp. mínima en grados centígrados (hora)
DESCASC
Temp. media en grados centígrados
DESCASC
Racha de viento máxima en m/sg (hora)
DESCASC
Velocidad máxima media en intervalos de 10 minutos(hora)
DESCASC
Precipitaciones diarias en mm
DESCASC
Precipitaciones de 00:00 a 06:00 en mm
DESCASC
Precipitaciones de 06:00 a 12:00 en mm
DESCASC
Precipitaciones de 12:00 a 18:00 en mm
DESCASC
Precipitaciones de 18:00 a 24:00 en mm
DESCASC
16-11-2019 11.5 (15:30) -0.7 (-00:0) 5.4 6.39 (17:10) 4.72 (17:30) 0 0 0 0 0
15-11-2019 9.6 (13:30) 2.9 (00:00) 6.3 9.44 (13:30) 6.39 (06:20) 0 0 0 0 0
14-11-2019 12.8 (03:40) 7.7 (00:00) 10.3 15.83 (14:20) 10.28 (11:20) 3 0 0.2 2.8 0
13-11-2019 16.7 (16:40) 8.9 (00:00) 12.8 11.39 (10:20) 7.22 (10:40) 0.6 0 0.6 0 0
12-11-2019 14.5 (16:20) 9.3 (00:00) 11.9 7.78 (15:40) 5 (16:10) 0 0 0 0 0
11-11-2019 12.6 (15:50) 8.4 (07:50) 10.5 7.78 (00:10) 5 (12:10) 0 0 0 0 0
10-11-2019 14.6 (15:00) 8.7 (00:00) 11.7 13.89 (18:00) 9.44 (18:00) 0.4 0.2 0 0.2 0
09-11-2019 14.8 (15:50) -0.5 (-00:0) 7.2 8.33 (23:50) 5.83 (23:50) 0 0 0 0 0
08-11-2019 13.9 (16:40) 4 (00:00) 8.9 10.28 (12:40) 6.94 (12:10) 0 0 0 0 0
07-11-2019 16.4 (16:00) 7.7 (00:00) 12 10.28 (14:10) 6.94 (14:10) 2.8 0 2 0.8 0
06-11-2019 15.7 (15:10) 7.2 (00:00) 11.4 9.17 (16:20) 6.39 (15:30) 0 0 0 0 0
05-11-2019 16 (15:50) 10.7 (00:00) 13.3 14.72 (03:00) 7.22 (03:00) 3.6 3.6 0 0 0
04-11-2019 18.3 (14:30) 14.2 (00:00) 16.2 12.22 (14:10) 7.78 (14:10) 0.2 0 0.2 0 0
03-11-2019 19.5 (14:30) 14.9 (00:00) 17.2 15.28 (13:30) 8.61 (14:50) 3.2 3.2 0 0 0
02-11-2019 21.5 (14:10) 16 (00:00) 18.8 13.33 (14:40) 8.06 (14:30) 5.4 0.2 5.2 0 0
01-11-2019 22.9 (16:50) 17.4 (00:00) 20.1 10 (19:00) 6.11 (19:00) 0 0 0 0 0
31-10-2019 23.3 (15:20) 13.8 (05:50) 18.5 7.5 (17:10) 4.72 (14:20) 0 0 0 0 0
30-10-2019 24.1 (15:10) 9.4 (00:00) 16.8 8.61 (16:10) 4.44 (16:40) 0 0 0 0 0
29-10-2019 23.1 (14:10) 11.4 (00:00) 17.3 6.67 (14:30) 4.17 (14:20) 0 0 0 0 0
28-10-2019 24.7 (15:00) 10 (00:00) 17.4 6.39 (16:40) 4.44 (16:40) 0 0 0 0 0
27-10-2019 24.2 (13:30) 9.8 (00:00) 17 9.17 (14:50) 6.11 (12:50) 0 0 0 0 0
26-10-2019 27.7 (16:50) 6.4 (00:00) 17.1 6.39 (13:40) 3.89 (18:40) 0 0 0 0 0
25-10-2019 24.5 (16:10) 5.5 (00:00) 15 10.83 (12:50) 7.22 (12:50) 0 0 0 0 0
24-10-2019 17.8 (17:10) 8.8 (00:00) 13.3 8.33 (01:40) 5.28 (01:40) 0 0 0 0 0
23-10-2019 16.2 (14:30) 7.8 (00:00) 12 15.28 (16:40) 8.61 (16:40) 3.4 0 0 2.6 0.8
22-10-2019 17.6 (14:20) 6.9 (00:00) 12.3 12.22 (16:20) 7.78 (16:40) 0 0 0 0 0
21-10-2019 19.9 (15:50) 6 (00:00) 12.9 8.61 (15:10) 2.78 (18:30) 0 0 0 0 0
20-10-2019 17.3 (16:50) 11.4 (00:00) 14.3 10.83 (00:50) 6.39 (00:50) 7.4 7.4 0 0 0
19-10-2019 23.3 (17:30) 11.7 (00:00) 17.5 14.17 (22:30) 10 (22:40) 1 0 0 0 1
18-10-2019 24.8 (16:40) 9.2 (00:00) 17 8.89 (14:50) 4.17 (18:20) 0 0 0 0 0

Gráficas

Temp. máximas Temp. mínimas Temp. medias Precipitaciones Rachas de viento máximas Velocidades máximas media en intervalos de 10 minutos

Datos horarios

Fecha y hora oficial Temperatura (ºC) Velocidad del viento (km/h) Dirección del viento Racha (km/h) Dirección de racha Precipitación (mm) Presión (hPa) Tendencia (hPa) Humedad (%)
2019-11-16 23:00:00 1.5 0 Calma 4 Sudoeste 0 -- -- 84
2019-11-16 22:00:00 2.9 0 Calma 3 Norte 0 -- -- 80
2019-11-16 21:00:00 3.9 0 Calma 6 Sur 0 -- -- 74
2019-11-16 20:00:00 6.9 3 Oeste 7 Oeste 0 -- -- 61
2019-11-16 19:00:00 7.6 0 Calma 11 Noroeste 0 -- -- 61
2019-11-16 18:00:00 9.6 9 Noroeste 23 Noroeste 0 -- -- 52
2019-11-16 17:00:00 11.1 15 Noroeste 23 Noroeste 0 -- -- 47
2019-11-16 16:00:00 11.5 12 Noroeste 21 Noroeste 0 -- -- 50
2019-11-16 15:00:00 11.4 9 Noroeste 20 Noroeste 0 -- -- 52
2019-11-16 14:00:00 10.4 10 Noroeste 21 Noroeste 0 -- -- 57
2019-11-16 13:00:00 9.4 9 Noroeste 17 Noroeste 0 -- -- 62
2019-11-16 12:00:00 8.5 5 Noroeste 12 Norte 0 -- -- 63
2019-11-16 11:00:00 6.3 2 Noroeste 6 Noroeste 0 -- -- 75
2019-11-16 10:00:00 3.7 0 Calma 4 Sudoeste 0 -- -- 88
2019-11-16 09:00:00 0.3 0 Calma 4 Norte 0 -- -- 93
2019-11-16 08:00:00 -0.7 3 Nordeste 5 Nordeste 0 -- -- 92
2019-11-16 07:00:00 -0.6 4 Norte 12 Norte 0 -- -- 92
2019-11-16 06:00:00 -0.2 3 Sudoeste 6 Oeste 0 -- -- 91
2019-11-16 05:00:00 0.4 0 Calma 5 Noroeste 0 -- -- 91
2019-11-16 04:00:00 1 3 Noroeste 10 Noroeste 0 -- -- 89
2019-11-16 03:00:00 1.9 2 Oeste 12 Noroeste 0 -- -- 88
2019-11-16 02:00:00 2.1 3 Este 9 Sur 0 -- -- 91
2019-11-16 01:00:00 1.7 0 Calma 4 Norte 0 -- -- 90
2019-11-16 00:00:00 2.9 2 Norte 6 Este 0 -- -- 87
2019-11-15 23:00:00 3.6 4 Sudeste 11 Este 0 -- -- 86
2019-11-15 22:00:00 4.4 3 Este 9 Este 0 -- -- 82
2019-11-15 21:00:00 4.5 2 Este 8 Norte 0 -- -- 82
2019-11-15 20:00:00 5.3 4 Norte 14 Noroeste 0 -- -- 80
2019-11-15 19:00:00 7 10 Noroeste 12 Noroeste 0 -- -- 74
2019-11-15 18:00:00 7.5 4 Noroeste 17 Noroeste 0 -- -- 71
2019-11-15 17:00:00 7.8 12 Noroeste 30 Noroeste 0 -- -- 67
2019-11-15 16:00:00 8.5 19 Noroeste 34 Oeste 0 -- -- 61
2019-11-15 15:00:00 8.9 15 Noroeste 31 Noroeste 0 -- -- 59
2019-11-15 14:00:00 8.5 16 Noroeste 34 Noroeste 0 -- -- 60
2019-11-15 13:00:00 8.8 22 Noroeste 33 Oeste 0 -- -- 57
2019-11-15 12:00:00 8.3 18 Noroeste 28 Oeste 0 -- -- 65
2019-11-15 11:00:00 7.9 19 Noroeste 31 Noroeste 0 -- -- 72
2019-11-15 10:00:00 6.8 18 Oeste 28 Noroeste 0 -- -- 80
2019-11-15 09:00:00 5.6 0 Calma 18 Oeste 0 -- -- 88
2019-11-15 08:00:00 4.9 11 Oeste 21 Oeste 0 -- -- 88
2019-11-15 07:00:00 5.3 13 Oeste 33 Oeste 0 -- -- 86
2019-11-15 06:00:00 5.7 15 Oeste 28 Oeste 0 -- -- 83
2019-11-15 05:00:00 6.3 20 Oeste 31 Oeste 0 -- -- 83
2019-11-15 04:00:00 6.6 12 Oeste 23 Oeste 0 -- -- 85
2019-11-15 03:00:00 6.8 10 Oeste 19 Oeste 0 -- -- 84
2019-11-15 02:00:00 7.4 12 Oeste 27 Oeste 0 -- -- 85
2019-11-15 01:00:00 7.7 15 Oeste 27 Oeste 0 -- -- 83
2019-11-15 00:00:00 7.7 18 Oeste 35 Oeste 0 -- -- 84
2019-11-14 23:00:00 8.1 18 Oeste 31 Oeste 0 -- -- 80
2019-11-14 22:00:00 8.5 13 Oeste 26 Oeste 0 -- -- 80
2019-11-14 21:00:00 9.1 14 Oeste 32 Oeste 0 -- -- 75
2019-11-14 20:00:00 8.7 12 Oeste 23 Oeste 0 -- -- 74
2019-11-14 19:00:00 9 12 Oeste 41 Noroeste 0 -- -- 72
2019-11-14 18:00:00 9.8 22 Noroeste 41 Noroeste 0 -- -- 72
2019-11-14 17:00:00 10.5 19 Oeste 41 Oeste 0 -- -- 78
2019-11-14 16:00:00 10.3 24 Oeste 44 Noroeste 0 -- -- 83
2019-11-14 15:00:00 9.6 29 Noroeste 57 Noroeste 1.4 -- -- 89
2019-11-14 14:00:00 10.4 35 Noroeste 57 Noroeste 0.2 -- -- 85
2019-11-14 13:00:00 10.9 27 Oeste 47 Oeste 1.2 -- -- 90
2019-11-14 12:00:00 11.1 32 Oeste 57 Oeste 0 -- -- 86
2019-11-14 11:00:00 11.9 27 Oeste 52 Oeste 0.2 -- -- 79
2019-11-14 10:00:00 10.7 17 Oeste 29 Sudoeste 0 -- -- 83
2019-11-14 09:00:00 10.3 10 Sudoeste 24 Sudoeste 0 -- -- 82
2019-11-14 08:00:00 9.6 10 Oeste 20 Oeste 0 -- -- 85
2019-11-14 07:00:00 9.8 13 Noroeste 26 Oeste 0 -- -- 86
2019-11-14 06:00:00 10.9 18 Oeste 33 Oeste 0 -- -- 83
2019-11-14 05:00:00 12.3 16 Oeste 33 Oeste 0 -- -- 86
2019-11-14 04:00:00 12.7 14 Oeste 29 Oeste 0 -- -- 87
2019-11-14 03:00:00 12.6 24 Oeste 35 Oeste 0 -- -- 89
2019-11-14 02:00:00 12.4 23 Oeste 32 Oeste 0 -- -- 89
2019-11-14 01:00:00 11.8 4 Sur 19 Sudoeste 0 -- -- 89
2019-11-14 00:00:00 12.1 4 Sur 18 Oeste 0 -- -- 89
2019-11-13 23:00:00 13.3 9 Oeste 23 Noroeste 0 -- -- 88
2019-11-13 22:00:00 12.9 7 Norte 10 Norte 0 -- -- 90
2019-11-13 21:00:00 13 5 Oeste 15 Oeste 0 -- -- 86
2019-11-13 20:00:00 13.8 10 Oeste 21 Oeste 0 -- -- 85
2019-11-13 19:00:00 14.5 11 Oeste 19 Oeste 0 -- -- 82
2019-11-13 18:00:00 15.3 5 Oeste 25 Oeste 0 -- -- 80
2019-11-13 17:00:00 16.4 22 Oeste 31 Oeste 0 -- -- 77
2019-11-13 16:00:00 15.9 11 Oeste 28 Noroeste 0 -- -- 82
2019-11-13 15:00:00 14.5 15 Oeste 32 Oeste 0 -- -- 91
2019-11-13 14:00:00 14 12 Oeste 37 Oeste 0 -- -- 91
2019-11-13 13:00:00 14 22 Oeste 38 Oeste 0 -- -- 89
2019-11-13 12:00:00 13.2 21 Oeste 38 Oeste 0 -- -- 90
2019-11-13 11:00:00 12.7 21 Oeste 41 Oeste 0.2 -- -- 92
2019-11-13 10:00:00 12.2 19 Oeste 37 Oeste 0.2 -- -- 91
2019-11-13 09:00:00 12 24 Oeste 39 Oeste 0.2 -- -- 90
2019-11-13 08:00:00 12 15 Oeste 30 Oeste 0 -- -- 86
2019-11-13 07:00:00 11.8 16 Oeste 28 Oeste 0 -- -- 88
2019-11-13 06:00:00 11.5 17 Oeste 29 Sudoeste 0 -- -- 86
2019-11-13 05:00:00 11.3 10 Oeste 23 Oeste 0 -- -- 83
2019-11-13 04:00:00 10.8 2 Noroeste 14 Oeste 0 -- -- 81
2019-11-13 03:00:00 10.4 5 Sudoeste 15 Oeste 0 -- -- 79
2019-11-13 02:00:00 10.3 4 Oeste 12 Noroeste 0 -- -- 76
2019-11-13 01:00:00 9.1 3 Sudeste 5 Sur 0 -- -- 76
2019-11-13 00:00:00 9.5 0 Calma 8 Noroeste 0 -- -- 72
2019-11-12 23:00:00 10.2 4 Noroeste 10 Noroeste 0 -- -- 65
2019-11-12 22:00:00 10.4 4 Oeste 9 Oeste 0 -- -- 64
2019-11-12 21:00:00 10.3 4 Sudoeste 13 Norte 0 -- -- 74
2019-11-12 20:00:00 11.6 6 Noroeste 9 Noroeste 0 -- -- 72
2019-11-12 19:00:00 11.9 4 Noroeste 10 Noroeste 0 -- -- 73
2019-11-12 18:00:00 13.3 9 Noroeste 18 Noroeste 0 -- -- 68
2019-11-12 17:00:00 14 13 Noroeste 26 Noroeste 0 -- -- 66
2019-11-12 16:00:00 14.4 14 Noroeste 28 Noroeste 0 -- -- 65
2019-11-12 15:00:00 13 13 Noroeste 22 Noroeste 0 -- -- 77
2019-11-12 14:00:00 12.8 13 Noroeste 21 Oeste 0 -- -- 80
2019-11-12 13:00:00 12.7 13 Noroeste 23 Noroeste 0 -- -- 81
2019-11-12 12:00:00 13.3 14 Norte 22 Noroeste 0 -- -- 77
2019-11-12 11:00:00 11.7 10 Norte 15 Norte 0 -- -- 96
2019-11-12 10:00:00 10.7 8 Norte 12 Noroeste 0 -- -- 96
2019-11-12 09:00:00 10.1 5 Noroeste 9 Oeste 0 -- -- 96
2019-11-12 08:00:00 9.9 5 Norte 11 Nordeste 0 -- -- 96
2019-11-12 07:00:00 9.7 5 Norte 20 Nordeste 0 -- -- 96
2019-11-12 06:00:00 9.3 10 Nordeste 18 Nordeste 0 -- -- 95
2019-11-12 05:00:00 10.1 2 Este 9 Norte 0 -- -- 94
2019-11-12 04:00:00 10.9 5 Norte 9 Norte 0 -- -- 94
2019-11-12 03:00:00 11.2 4 Norte 8 Norte 0 -- -- 94
2019-11-12 02:00:00 10.8 4 Norte 9 Norte 0 -- -- 94
2019-11-12 01:00:00 10.7 4 Norte 6 Noroeste 0 -- -- 94
2019-11-12 00:00:00 10.8 0 Calma 5 Norte 0 -- -- 93
2019-11-11 23:00:00 10.8 0 Calma 6 Este 0 -- -- 93
2019-11-11 22:00:00 10.9 6 Este 10 Este 0 -- -- 92
2019-11-11 21:00:00 11.5 5 Este 9 Este 0 -- -- 91
2019-11-11 20:00:00 11.8 4 Nordeste 9 Nordeste 0 -- -- 91
2019-11-11 19:00:00 12 6 Nordeste 12 Norte 0 -- -- 91
2019-11-11 18:00:00 11.8 10 Norte 14 Nordeste 0 -- -- 92
2019-11-11 17:00:00 12.1 9 Noroeste 18 Noroeste 0 -- -- 90
2019-11-11 16:00:00 12.5 13 Norte 22 Norte 0 -- -- 80
2019-11-11 15:00:00 12.2 12 Noroeste 24 Noroeste 0 -- -- 79
2019-11-11 14:00:00 12.1 14 Noroeste 24 Noroeste 0 -- -- 75
2019-11-11 13:00:00 12.2 14 Noroeste 26 Noroeste 0 -- -- 72
2019-11-11 12:00:00 12.3 15 Noroeste 25 Noroeste 0 -- -- 72
2019-11-11 11:00:00 11.3 14 Noroeste 21 Noroeste 0 -- -- 77
2019-11-11 10:00:00 10.2 13 Noroeste 19 Oeste 0 -- -- 85
2019-11-11 09:00:00 9.2 10 Noroeste 16 Noroeste 0 -- -- 88
2019-11-11 08:00:00 8.4 10 Noroeste 16 Noroeste 0 -- -- 88
2019-11-11 07:00:00 8.9 7 Noroeste 14 Noroeste 0 -- -- 84
2019-11-11 06:00:00 9.5 9 Noroeste 21 Noroeste 0 -- -- 80
2019-11-11 05:00:00 9.5 13 Noroeste 24 Noroeste 0 -- -- 80
2019-11-11 04:00:00 9.8 13 Noroeste 21 Noroeste 0 -- -- 76
2019-11-11 03:00:00 10 13 Noroeste 20 Noroeste 0 -- -- 74
2019-11-11 02:00:00 9.9 12 Noroeste 26 Noroeste 0 -- -- 73
2019-11-11 01:00:00 10.1 16 Noroeste 28 Noroeste 0 -- -- 71
2019-11-11 00:00:00 10.2 16 Noroeste 28 Noroeste 0 -- -- 70
2019-11-10 23:00:00 10.6 12 Noroeste 28 Noroeste 0 -- -- 67
2019-11-10 22:00:00 10.3 18 Noroeste 30 Noroeste 0 -- -- 66
2019-11-10 21:00:00 10.4 14 Noroeste 25 Noroeste 0 -- -- 63
2019-11-10 20:00:00 10.8 16 Noroeste 40 Noroeste 0 -- -- 60
2019-11-10 19:00:00 11.1 28 Noroeste 47 Noroeste 0 -- -- 57
2019-11-10 18:00:00 12.6 34 Noroeste 50 Noroeste 0 -- -- 49
2019-11-10 17:00:00 13.9 28 Noroeste 49 Noroeste 0 -- -- 43
2019-11-10 16:00:00 14.1 28 Noroeste 44 Noroeste 0 -- -- 43
2019-11-10 15:00:00 14.6 26 Noroeste 50 Noroeste 0.2 -- -- 45
2019-11-10 14:00:00 13.5 32 Norte 50 Noroeste 0 -- -- 50
2019-11-10 13:00:00 12.1 28 Noroeste 41 Noroeste 0 -- -- 57
2019-11-10 12:00:00 11.6 27 Noroeste 39 Noroeste 0 -- -- 65
2019-11-10 11:00:00 10.7 16 Noroeste 31 Noroeste 0 -- -- 76
2019-11-10 10:00:00 9.9 22 Noroeste 37 Noroeste 0 -- -- 78
2019-11-10 09:00:00 9.1 26 Noroeste 34 Noroeste 0 -- -- 82
2019-11-10 08:00:00 9.1 19 Noroeste 32 Noroeste 0 -- -- 84
2019-11-10 07:00:00 9.9 18 Noroeste 35 Noroeste 0 -- -- 86
2019-11-10 06:00:00 10.9 18 Noroeste 34 Noroeste 0 -- -- 87
2019-11-10 05:00:00 11.6 15 Noroeste 33 Noroeste 0 -- -- 89
2019-11-10 04:00:00 12 7 Noroeste 27 Noroeste 0 -- -- 91
2019-11-10 03:00:00 11.9 12 Oeste 26 Oeste 0 -- -- 93
2019-11-10 02:00:00 10.8 10 Oeste 27 Oeste 0.2 -- -- 92
2019-11-10 01:00:00 10.6 12 Oeste 35 Oeste 0 -- -- 87
2019-11-10 00:00:00 11.3 17 Oeste 30 Oeste 0 -- -- 76
2019-11-09 23:00:00 11.1 12 Oeste 25 Oeste 0 -- -- 70
2019-11-09 22:00:00 10.9 8 Oeste 15 Oeste 0 -- -- 58
2019-11-09 21:00:00 10.4 8 Oeste 14 Oeste 0 -- -- 59
2019-11-09 20:00:00 10.7 5 Oeste 11 Oeste 0 -- -- 59
2019-11-09 19:00:00 11.6 4 Noroeste 10 Noroeste 0 -- -- 52
2019-11-09 18:00:00 12.5 5 Noroeste 24 Noroeste 0 -- -- 50
2019-11-09 17:00:00 14 17 Noroeste 24 Oeste 0 -- -- 46
2019-11-09 16:00:00 14.5 15 Noroeste 28 Noroeste 0 -- -- 41
2019-11-09 15:00:00 14.5 14 Norte 23 Norte 0 -- -- 44
2019-11-09 14:00:00 14.1 13 Norte 25 Norte 0 -- -- 44
2019-11-09 13:00:00 13.4 9 Norte 19 Noroeste 0 -- -- 47
2019-11-09 12:00:00 12 6 Nordeste 14 Nordeste 0 -- -- 57
2019-11-09 11:00:00 9.4 2 Sudoeste 6 Sur 0 -- -- 69
2019-11-09 10:00:00 6.1 2 Sudeste 7 Sudoeste 0 -- -- 89
2019-11-09 09:00:00 1.8 4 Sudoeste 6 Sudoeste 0 -- -- 95
2019-11-09 08:00:00 -0.5 2 Sudeste 3 Nordeste 0 -- -- 93
2019-11-09 07:00:00 0.4 0 Calma 4 Norte 0 -- -- 93
2019-11-09 06:00:00 0.5 0 Calma 4 Sudeste 0 -- -- 93
2019-11-09 05:00:00 0.8 0 Calma 4 Norte 0 -- -- 92
2019-11-09 04:00:00 1.3 2 Sur 4 Oeste 0 -- -- 90
2019-11-09 03:00:00 2.3 2 Sur 5 Sudoeste 0 -- -- 91
2019-11-09 02:00:00 2.4 2 Sur 8 Norte 0 -- -- 91
2019-11-09 01:00:00 2.6 8 Norte 10 Norte 0 -- -- 87
2019-11-09 00:00:00 4.4 4 Sudeste 6 Este 0 -- -- 86
2019-11-08 23:00:00 5.4 2 Norte 9 Este 0 -- -- 80
2019-11-08 22:00:00 5.3 5 Sudeste 6 Sudeste 0 -- -- 84
2019-11-08 21:00:00 6.7 0 Calma 8 Sur 0 -- -- 78
2019-11-08 20:00:00 8.3 0 Calma 9 Sudoeste 0 -- -- 66
2019-11-08 19:00:00 10.2 5 Noroeste 10 Noroeste 0 -- -- 59
2019-11-08 18:00:00 12.6 9 Noroeste 19 Noroeste 0 -- -- 49
2019-11-08 17:00:00 13.8 15 Noroeste 26 Noroeste 0 -- -- 44
2019-11-08 16:00:00 13.4 17 Noroeste 30 Noroeste 0 -- -- 46
2019-11-08 15:00:00 13.5 19 Noroeste 33 Oeste 0 -- -- 51
2019-11-08 14:00:00 12.6 21 Noroeste 36 Oeste 0 -- -- 54
2019-11-08 13:00:00 12.1 21 Noroeste 37 Noroeste 0 -- -- 59
2019-11-08 12:00:00 10.8 23 Noroeste 35 Noroeste 0 -- -- 67
2019-11-08 11:00:00 10.3 19 Noroeste 33 Noroeste 0 -- -- 72
2019-11-08 10:00:00 9.3 14 Noroeste 23 Noroeste 0 -- -- 80
2019-11-08 09:00:00 7.8 12 Noroeste 18 Noroeste 0 -- -- 86
2019-11-08 08:00:00 7.8 10 Noroeste 21 Noroeste 0 -- -- 82
2019-11-08 07:00:00 7.8 8 Noroeste 21 Noroeste 0 -- -- 83
2019-11-08 06:00:00 7.2 13 Noroeste 21 Noroeste 0 -- -- 84
2019-11-08 05:00:00 7.3 10 Noroeste 17 Noroeste 0 -- -- 81
2019-11-08 04:00:00 7.2 10 Oeste 18 Noroeste 0 -- -- 80
2019-11-08 03:00:00 7.7 15 Oeste 20 Oeste 0 -- -- 77
2019-11-08 02:00:00 7.5 14 Noroeste 17 Oeste 0 -- -- 77
2019-11-08 01:00:00 8.8 11 Noroeste 22 Noroeste 0 -- -- 71
2019-11-08 00:00:00 9.8 15 Noroeste 24 Noroeste 0 -- -- 68
2019-11-07 23:00:00 9.7 12 Noroeste 23 Noroeste 0 -- -- 67
2019-11-07 22:00:00 10.1 9 Noroeste 19 Noroeste 0 -- -- 68
2019-11-07 21:00:00 10.4 13 Noroeste 20 Noroeste 0 -- -- 75
2019-11-07 20:00:00 11 12 Noroeste 17 Noroeste 0 -- -- 76
2019-11-07 19:00:00 12.2 14 Noroeste 23 Noroeste 0 -- -- 70
2019-11-07 18:00:00 14.3 15 Noroeste 27 Noroeste 0 -- -- 62
2019-11-07 17:00:00 15.6 17 Noroeste 34 Oeste 0 -- -- 67
2019-11-07 16:00:00 16.4 17 Oeste 33 Noroeste 0 -- -- 75
2019-11-07 15:00:00 15.3 14 Noroeste 37 Noroeste 0 -- -- 88
2019-11-07 14:00:00 14.4 20 Noroeste 34 Oeste 0.6 -- -- 92
2019-11-07 13:00:00 14.9 19 Oeste 31 Oeste 0.2 -- -- 91
2019-11-07 12:00:00 13.6 0 Calma 4 Sudoeste 2 -- -- 91
2019-11-07 11:00:00 12.8 5 Sudoeste 10 Sur 0 -- -- 88
2019-11-07 10:00:00 10.6 2 Sudeste 8 Sudoeste 0 -- -- 92
2019-11-07 09:00:00 9.6 4 Sudoeste 8 Sudoeste 0 -- -- 93
2019-11-07 08:00:00 8.4 5 Sur 9 Sur 0 -- -- 93
2019-11-07 07:00:00 7.8 0 Calma 8 Sudoeste 0 -- -- 92
2019-11-07 06:00:00 7.8 3 Sur 6 Sudeste 0 -- -- 92
2019-11-07 05:00:00 8.2 3 Sudeste 4 Sudeste 0 -- -- 92
2019-11-07 04:00:00 8.3 0 Calma 5 Sur 0 -- -- 89
2019-11-07 03:00:00 8.8 3 Sur 5 Sudeste 0 -- -- 88
2019-11-07 02:00:00 9.5 0 Calma 6 Oeste 0 -- -- 86
2019-11-07 01:00:00 10.2 0 Calma 12 Noroeste 0 -- -- 85
2019-11-07 00:00:00 10.4 3 Norte 12 Oeste 0 -- -- 85
2019-11-06 23:00:00 11.2 12 Oeste 19 Oeste 0 -- -- 83
2019-11-06 22:00:00 11.1 12 Oeste 15 Oeste 0 -- -- 77
2019-11-06 21:00:00 10.9 5 Noroeste 8 Noroeste 0 -- -- 75
2019-11-06 20:00:00 11.3 0 Calma 7 Noroeste 0 -- -- 73
2019-11-06 19:00:00 12.4 4 Oeste 12 Noroeste 0 -- -- 69
2019-11-06 18:00:00 14.4 9 Noroeste 28 Noroeste 0 -- -- 60
2019-11-06 17:00:00 15.3 17 Noroeste 33 Noroeste 0 -- -- 54
2019-11-06 16:00:00 15.3 21 Noroeste 32 Noroeste 0 -- -- 55
2019-11-06 15:00:00 15.6 17 Noroeste 30 Noroeste 0 -- -- 56
2019-11-06 14:00:00 15.2 16 Noroeste 28 Noroeste 0 -- -- 58
2019-11-06 13:00:00 14.7 12 Norte 24 Noroeste 0 -- -- 59
2019-11-06 12:00:00 13.7 9 Norte 17 Noroeste 0 -- -- 65
2019-11-06 11:00:00 12.5 8 Noroeste 15 Noroeste 0 -- -- 75
2019-11-06 10:00:00 11.3 3 Sur 5 Sudoeste 0 -- -- 82
2019-11-06 09:00:00 9.2 0 Calma 5 Sudeste 0 -- -- 94
2019-11-06 08:00:00 7.3 3 Sur 10 Noroeste 0 -- -- 92
2019-11-06 07:00:00 7.7 0 Calma 9 Oeste 0 -- -- 92
2019-11-06 06:00:00 7.6 0 Calma 9 Noroeste 0 -- -- 91
2019-11-06 05:00:00 8.3 3 Sudeste 6 Sudeste 0 -- -- 91
2019-11-06 04:00:00 8.7 0 Calma 6 Noroeste 0 -- -- 88
2019-11-06 03:00:00 9.1 0 Calma 10 Noroeste 0 -- -- 88
2019-11-06 02:00:00 10.7 5 Noroeste 13 Oeste 0 -- -- 84
2019-11-06 01:00:00 11.4 8 Oeste 15 Noroeste 0 -- -- 82
2019-11-06 00:00:00 11.8 12 Noroeste 20 Noroeste 0 -- -- 81
2019-11-05 23:00:00 12 8 Oeste 23 Oeste 0 -- -- 87
2019-11-05 22:00:00 12.9 15 Oeste 33 Oeste 0 -- -- 86
2019-11-05 21:00:00 13.3 21 Oeste 31 Oeste 0 -- -- 83
2019-11-05 20:00:00 13.9 12 Oeste 21 Oeste 0 -- -- 79
2019-11-05 19:00:00 13.8 9 Oeste 21 Oeste 0 -- -- 72
2019-11-05 18:00:00 15 17 Oeste 29 Noroeste 0 -- -- 67
2019-11-05 17:00:00 15.2 12 Oeste 31 Noroeste 0 -- -- 68
2019-11-05 16:00:00 15.7 17 Noroeste 33 Oeste 0 -- -- 64
2019-11-05 15:00:00 15.6 19 Noroeste 34 Oeste 0 -- -- 64
2019-11-05 14:00:00 14.5 18 Noroeste 34 Oeste 0 -- -- 67
2019-11-05 13:00:00 14 19 Noroeste 35 Noroeste 0 -- -- 69
2019-11-05 12:00:00 13.8 23 Noroeste 37 Noroeste 0 -- -- 69
2019-11-05 11:00:00 13.1 18 Noroeste 32 Oeste 0 -- -- 74
2019-11-05 10:00:00 12 18 Noroeste 31 Noroeste 0 -- -- 82
2019-11-05 09:00:00 11.4 9 Noroeste 19 Noroeste 0 -- -- 86
2019-11-05 08:00:00 10.8 14 Noroeste 36 Noroeste 0 -- -- 88
2019-11-05 07:00:00 11.6 14 Noroeste 27 Noroeste 0 -- -- 87
2019-11-05 06:00:00 12.3 13 Oeste 31 Oeste 0 -- -- 85
2019-11-05 05:00:00 12.6 18 Noroeste 35 Oeste 0 -- -- 89
2019-11-05 04:00:00 12.8 14 Noroeste 36 Oeste 0.2 -- -- 91
2019-11-05 03:00:00 13 26 Noroeste 53 Oeste 1.2 -- -- 92
2019-11-05 02:00:00 14.3 19 Oeste 31 Noroeste 2.2 -- -- 87
2019-11-05 01:00:00 15 16 Oeste 32 Sudoeste 0 -- -- 83
2019-11-05 00:00:00 15.2 18 Oeste 30 Sudoeste 0 -- -- 78
2019-11-04 23:00:00 14.5 6 Sudoeste 31 Sudoeste 0 -- -- 79
2019-11-04 22:00:00 15.5 17 Oeste 32 Oeste 0 -- -- 76
2019-11-04 21:00:00 15.7 14 Oeste 38 Oeste 0 -- -- 74
2019-11-04 20:00:00 16 17 Oeste 37 Sudoeste 0 -- -- 75
2019-11-04 19:00:00 16.4 16 Oeste 33 Oeste 0 -- -- 74
2019-11-04 18:00:00 16.9 19 Oeste 31 Oeste 0 -- -- 73
2019-11-04 17:00:00 17.2 15 Oeste 39 Oeste 0 -- -- 70
2019-11-04 16:00:00 17.5 21 Oeste 36 Oeste 0 -- -- 69
2019-11-04 15:00:00 17.9 22 Oeste 44 Oeste 0 -- -- 70
2019-11-04 14:00:00 17.5 22 Oeste 41 Oeste 0 -- -- 72
2019-11-04 13:00:00 17.6 20 Oeste 37 Oeste 0 -- -- 73
2019-11-04 12:00:00 17.8 19 Oeste 37 Oeste 0 -- -- 74
2019-11-04 11:00:00 17 20 Oeste 35 Oeste 0 -- -- 81
2019-11-04 10:00:00 16 20 Oeste 34 Oeste 0.2 -- -- 89
2019-11-04 09:00:00 15 12 Oeste 18 Oeste 0 -- -- 91
2019-11-04 08:00:00 14.5 9 Noroeste 15 Oeste 0 -- -- 92
2019-11-04 07:00:00 14.3 6 Noroeste 13 Noroeste 0 -- -- 92
2019-11-04 06:00:00 14.2 9 Noroeste 28 Oeste 0 -- -- 91
2019-11-04 05:00:00 15 11 Oeste 21 Noroeste 0 -- -- 88
2019-11-04 04:00:00 15 7 Oeste 16 Sudoeste 0 -- -- 87
2019-11-04 03:00:00 14.8 6 Sudeste 13 Sur 0 -- -- 87
2019-11-04 02:00:00 15.7 7 Sur 21 Noroeste 0 -- -- 87
2019-11-04 01:00:00 15.7 6 Sudoeste 15 Sudoeste 0 -- -- 87
2019-11-04 00:00:00 15.7 5 Oeste 23 Sudoeste 0 -- -- 87
2019-11-03 23:00:00 16.1 19 Oeste 33 Oeste 0 -- -- 86
2019-11-03 22:00:00 16.4 17 Oeste 27 Oeste 0 -- -- 84
2019-11-03 21:00:00 16.8 13 Oeste 30 Oeste 0 -- -- 83
2019-11-03 20:00:00 17 19 Oeste 40 Oeste 0 -- -- 81
2019-11-03 19:00:00 17.4 23 Oeste 39 Oeste 0 -- -- 80
2019-11-03 18:00:00 18.3 22 Oeste 40 Oeste 0 -- -- 75
2019-11-03 17:00:00 19.1 20 Oeste 42 Oeste 0 -- -- 72
2019-11-03 16:00:00 19.1 22 Oeste 45 Oeste 0 -- -- 70
2019-11-03 15:00:00 18.8 30 Oeste 52 Oeste 0 -- -- 70
2019-11-03 14:00:00 18.5 24 Oeste 55 Oeste 0 -- -- 74
2019-11-03 13:00:00 17.5 24 Oeste 47 Noroeste 0 -- -- 76
2019-11-03 12:00:00 17.1 23 Oeste 46 Oeste 0 -- -- 79
2019-11-03 11:00:00 16.2 29 Oeste 46 Oeste 0 -- -- 81
2019-11-03 10:00:00 15.7 19 Oeste 34 Oeste 0 -- -- 81
2019-11-03 09:00:00 15.1 21 Oeste 36 Oeste 0 -- -- 83
2019-11-03 08:00:00 14.9 17 Oeste 37 Oeste 0 -- -- 84
2019-11-03 07:00:00 15.3 19 Oeste 43 Oeste 0 -- -- 84
2019-11-03 06:00:00 15.9 20 Noroeste 32 Oeste 0.2 -- -- 90
2019-11-03 05:00:00 15.8 21 Oeste 37 Oeste 2 -- -- 91
2019-11-03 04:00:00 16 16 Oeste 32 Oeste 0.4 -- -- 91
2019-11-03 03:00:00 15.9 21 Oeste 32 Oeste 0 -- -- 92
2019-11-03 02:00:00 15.9 15 Oeste 30 Oeste 0.2 -- -- 92
2019-11-03 01:00:00 15.9 14 Oeste 45 Oeste 0.4 -- -- 91
2019-11-03 00:00:00 16.4 14 Oeste 30 Oeste 0 -- -- 86
2019-11-02 23:00:00 16.6 17 Sudoeste 35 Sudoeste 0 -- -- 82
2019-11-02 22:00:00 16.7 23 Oeste 37 Sudoeste 0 -- -- 79
2019-11-02 21:00:00 16.6 4 Sur 29 Sudoeste 0 -- -- 79
2019-11-02 20:00:00 17.4 15 Oeste 35 Sudoeste 0 -- -- 78
2019-11-02 19:00:00 18.1 17 Oeste 36 Oeste 0 -- -- 74
2019-11-02 18:00:00 19.5 21 Oeste 41 Oeste 0 -- -- 73
2019-11-02 17:00:00 20.5 24 Oeste 43 Sudoeste 0 -- -- 70
2019-11-02 16:00:00 19.9 23 Oeste 41 Oeste 0 -- -- 76
2019-11-02 15:00:00 19.4 22 Oeste 48 Oeste 0 -- -- 74
2019-11-02 14:00:00 21.4 25 Oeste 45 Oeste 0 -- -- 72
2019-11-02 13:00:00 20.2 22 Oeste 42 Oeste 0 -- -- 75
2019-11-02 12:00:00 19.3 23 Oeste 41 Oeste 0 -- -- 81
2019-11-02 11:00:00 17.9 14 Oeste 26 Oeste 3.6 -- -- 90
2019-11-02 10:00:00 17.7 11 Oeste 29 Oeste 0 -- -- 88
2019-11-02 09:00:00 17.3 15 Oeste 31 Oeste 0 -- -- 90
2019-11-02 08:00:00 16.6 5 Noroeste 14 Oeste 1.6 -- -- 90
2019-11-02 07:00:00 17 6 Oeste 23 Oeste 0 -- -- 85
2019-11-02 06:00:00 16.2 9 Oeste 17 Oeste 0.2 -- -- 87
2019-11-02 05:00:00 16.6 7 Oeste 21 Oeste 0 -- -- 85
2019-11-02 04:00:00 17.3 13 Oeste 21 Oeste 0 -- -- 84
2019-11-02 03:00:00 17.6 14 Oeste 31 Oeste 0 -- -- 86
2019-11-02 02:00:00 17.7 12 Oeste 26 Oeste 0 -- -- 86
2019-11-02 01:00:00 17.6 17 Noroeste 31 Oeste 0 -- -- 88
2019-11-02 00:00:00 17.5 19 Oeste 33 Oeste 0 -- -- 88
2019-11-01 23:00:00 17.6 9 Noroeste 19 Oeste 0 -- -- 86
2019-11-01 22:00:00 18.3 9 Oeste 18 Oeste 0 -- -- 83
2019-11-01 21:00:00 18.8 14 Oeste 27 Oeste 0 -- -- 81
2019-11-01 20:00:00 19.6 14 Oeste 35 Oeste 0 -- -- 78
2019-11-01 19:00:00 20.7 22 Oeste 36 Oeste 0 -- -- 74
2019-11-01 18:00:00 22.2 20 Oeste 33 Oeste 0 -- -- 67
2019-11-01 17:00:00 22.6 18 Noroeste 28 Oeste 0 -- -- 64
2019-11-01 16:00:00 22.4 13 Oeste 32 Noroeste 0 -- -- 63
2019-11-01 15:00:00 22.5 18 Noroeste 28 Oeste 0 -- -- 63
2019-11-01 14:00:00 22.1 13 Noroeste 22 Noroeste 0 -- -- 66
2019-11-01 13:00:00 20.6 10 Noroeste 22 Noroeste 0 -- -- 72
2019-11-01 12:00:00 19.1 10 Noroeste 22 Noroeste 0 -- -- 81
2019-11-01 11:00:00 18.7 12 Noroeste 21 Noroeste 0 -- -- 84
2019-11-01 10:00:00 18.4 14 Noroeste 21 Noroeste 0 -- -- 83
2019-11-01 09:00:00 17.5 10 Noroeste 18 Noroeste 0 -- -- 89
2019-11-01 08:00:00 17.5 13 Noroeste 18 Noroeste 0 -- -- 89
2019-11-01 07:00:00 17.6 10 Noroeste 18 Noroeste 0 -- -- 89
2019-11-01 06:00:00 17.6 10 Noroeste 17 Noroeste 0 -- -- 89
2019-11-01 05:00:00 18.1 15 Noroeste 24 Noroeste 0 -- -- 88
2019-11-01 04:00:00 18.4 10 Noroeste 19 Noroeste 0 -- -- 88
2019-11-01 03:00:00 18.7 12 Noroeste 25 Noroeste 0 -- -- 86
2019-11-01 02:00:00 19 17 Noroeste 26 Noroeste 0 -- -- 85
2019-11-01 01:00:00 19.5 7 Noroeste 16 Noroeste 0 -- -- 82
2019-11-01 00:00:00 19.1 3 Oeste 6 Oeste 0 -- -- 83
2019-10-31 23:00:00 19 2 Sudoeste 6 Norte 0 -- -- 83
2019-10-31 22:00:00 19 4 Noroeste 10 Oeste 0 -- -- 81
2019-10-31 21:00:00 19.6 7 Oeste 11 Oeste 0 -- -- 75
2019-10-31 20:00:00 20.4 6 Noroeste 12 Noroeste 0 -- -- 72
2019-10-31 19:00:00 21 7 Noroeste 16 Noroeste 0 -- -- 68
2019-10-31 18:00:00 22 10 Noroeste 27 Noroeste 0 -- -- 64
2019-10-31 17:00:00 23.1 13 Noroeste 25 Noroeste 0 -- -- 59
2019-10-31 16:00:00 23 15 Noroeste 26 Noroeste 0 -- -- 57
2019-10-31 15:00:00 22.6 15 Noroeste 24 Noroeste 0 -- -- 58
2019-10-31 14:00:00 21.5 12 Norte 22 Norte 0 -- -- 65
2019-10-31 13:00:00 20.3 9 Noroeste 20 Norte 0 -- -- 73
2019-10-31 12:00:00 19.1 9 Norte 14 Norte 0 -- -- 79
2019-10-31 11:00:00 19.1 8 Norte 13 Noroeste 0 -- -- 77
2019-10-31 10:00:00 17.9 0 Calma 6 Oeste 0 -- -- 81
2019-10-31 09:00:00 15.6 2 Noroeste 4 Sudeste 0 -- -- 86
2019-10-31 08:00:00 14.6 2 Sur 4 Sudeste 0 -- -- 87
2019-10-31 07:00:00 14.1 3 Sudeste 5 Norte 0 -- -- 88
2019-10-31 06:00:00 13.8 2 Nordeste 7 Noroeste 0 -- -- 89
2019-10-31 05:00:00 14.2 3 Nordeste 8 Sudeste 0 -- -- 85
2019-10-31 04:00:00 15.5 2 Sudeste 6 Este 0 -- -- 84
2019-10-31 03:00:00 16.2 3 Sudeste 7 Este 0 -- -- 81
2019-10-31 02:00:00 17.4 0 Calma 13 Noroeste 0 -- -- 77
2019-10-31 01:00:00 17.8 8 Oeste 17 Sudoeste 0 -- -- 75
2019-10-31 00:00:00 18.1 0 Calma 11 Sur 0 -- -- 71
2019-10-30 23:00:00 18.6 3 Sudoeste 6 Oeste 0 -- -- 66
2019-10-30 22:00:00 18.7 0 Calma 10 Oeste 0 -- -- 64
2019-10-30 21:00:00 19.3 6 Oeste 10 Oeste 0 -- -- 61
2019-10-30 20:00:00 19.6 8 Noroeste 14 Noroeste 0 -- -- 58
2019-10-30 19:00:00 20.2 9 Noroeste 13 Noroeste 0 -- -- 56
2019-10-30 18:00:00 22 9 Noroeste 22 Noroeste 0 -- -- 49
2019-10-30 17:00:00 23.3 13 Norte 31 Noroeste 0 -- -- 45
2019-10-30 16:00:00 24 14 Norte 23 Norte 0 -- -- 43
2019-10-30 15:00:00 24 13 Noroeste 21 Norte 0 -- -- 44
2019-10-30 14:00:00 23.4 13 Norte 22 Noroeste 0 -- -- 46
2019-10-30 13:00:00 23 11 Norte 19 Noroeste 0 -- -- 47
2019-10-30 12:00:00 21.7 5 Nordeste 8 Nordeste 0 -- -- 61
2019-10-30 11:00:00 18.2 4 Sudoeste 7 Sudoeste 0 -- -- 73
2019-10-30 10:00:00 15.2 2 Sur 5 Sudoeste 0 -- -- 81
2019-10-30 09:00:00 11.1 0 Calma 4 Norte 0 -- -- 92
2019-10-30 08:00:00 9.4 0 Calma 4 Sudeste 0 -- -- 91
2019-10-30 07:00:00 10.3 0 Calma 3 Oeste 0 -- -- 91
2019-10-30 06:00:00 10.2 2 Oeste 3 Oeste 0 -- -- 88
2019-10-30 05:00:00 11.3 0 Calma 3 Noroeste 0 -- -- 90
2019-10-30 04:00:00 11.4 2 Noroeste 4 Noroeste 0 -- -- 89
2019-10-30 03:00:00 11.6 0 Calma 6 Sudeste 0 -- -- 88
2019-10-30 02:00:00 11.7 0 Calma 6 Sudoeste 0 -- -- 86
2019-10-30 01:00:00 12.3 2 Sudeste 7 Norte 0 -- -- 85
2019-10-30 00:00:00 13.1 2 Nordeste 4 Nordeste 0 -- -- 80
2019-10-29 23:00:00 14.7 0 Calma 9 Sur 0 -- -- 80
2019-10-29 22:00:00 15.4 0 Calma 6 Sur 0 -- -- 76
2019-10-29 21:00:00 16.5 2 Sudeste 6 Norte 0 -- -- 72
2019-10-29 20:00:00 17.3 4 Norte 9 Noroeste 0 -- -- 68
2019-10-29 19:00:00 18.6 5 Norte 12 Norte 0 -- -- 64
2019-10-29 18:00:00 21.1 10 Noroeste 16 Norte 0 -- -- 56
2019-10-29 17:00:00 22.3 10 Norte 21 Noroeste 0 -- -- 54
2019-10-29 16:00:00 21.5 12 Norte 22 Norte 0 -- -- 57
2019-10-29 15:00:00 22.4 13 Noroeste 24 Norte 0 -- -- 56
2019-10-29 14:00:00 22.8 9 Noroeste 22 Noroeste 0 -- -- 56
2019-10-29 13:00:00 21 4 Noroeste 19 Norte 0 -- -- 61
2019-10-29 12:00:00 20.5 4 Norte 14 Norte 0 -- -- 66
2019-10-29 11:00:00 19.2 3 Noroeste 7 Norte 0 -- -- 73
2019-10-29 10:00:00 17.7 5 Este 10 Nordeste 0 -- -- 80
2019-10-29 09:00:00 14.2 3 Nordeste 6 Este 0 -- -- 93
2019-10-29 08:00:00 11.6 2 Sur 6 Sur 0 -- -- 91
2019-10-29 07:00:00 11.9 0 Calma 4 Sudoeste 0 -- -- 89
2019-10-29 06:00:00 13.2 0 Calma 3 Sudeste 0 -- -- 87
2019-10-29 05:00:00 14.5 2 Sudeste 5 Sudoeste 0 -- -- 85
2019-10-29 04:00:00 15.1 0 Calma 3 Norte 0 -- -- 83
2019-10-29 03:00:00 15 3 Este 5 Sur 0 -- -- 83
2019-10-29 02:00:00 15.2 3 Sur 6 Sudeste 0 -- -- 84
2019-10-29 01:00:00 14.9 4 Sur 7 Norte 0 -- -- 82
2019-10-29 00:00:00 14.2 3 Norte 6 Norte 0 -- -- 81
2019-10-28 23:00:00 15 4 Este 7 Sudeste 0 -- -- 81
2019-10-28 22:00:00 15.6 3 Norte 6 Nordeste 0 -- -- 76
2019-10-28 21:00:00 16.7 4 Norte 10 Norte 0 -- -- 74
2019-10-28 20:00:00 17.7 7 Norte 15 Noroeste 0 -- -- 70
2019-10-28 19:00:00 18.8 10 Noroeste 19 Oeste 0 -- -- 65
2019-10-28 18:00:00 20.7 13 Noroeste 22 Noroeste 0 -- -- 56
2019-10-28 17:00:00 22.1 16 Noroeste 23 Noroeste 0 -- -- 52
2019-10-28 16:00:00 23.3 13 Noroeste 19 Noroeste 0 -- -- 45
2019-10-28 15:00:00 24.7 5 Oeste 13 Noroeste 0 -- -- 35
2019-10-28 14:00:00 24 4 Sudeste 12 Sudoeste 0 -- -- 33
2019-10-28 13:00:00 22 9 Sudoeste 16 Oeste 0 -- -- 37
2019-10-28 12:00:00 20.2 3 Sudoeste 13 Oeste 0 -- -- 48
2019-10-28 11:00:00 17.5 5 Sudoeste 8 Sudoeste 0 -- -- 57
2019-10-28 10:00:00 15.9 4 Sudoeste 7 Sudoeste 0 -- -- 67
2019-10-28 09:00:00 12.7 4 Sudeste 8 Este 0 -- -- 74
2019-10-28 08:00:00 12.5 4 Nordeste 6 Este 0 -- -- 74
2019-10-28 07:00:00 11.5 3 Oeste 9 Nordeste 0 -- -- 76
2019-10-28 06:00:00 10.8 0 Calma 8 Sudoeste 0 -- -- 79
2019-10-28 05:00:00 10.8 4 Nordeste 8 Sudeste 0 -- -- 78
2019-10-28 04:00:00 10.4 2 Sudoeste 9 Noroeste 0 -- -- 79
2019-10-28 03:00:00 10.5 7 Sudeste 10 Oeste 0 -- -- 78
2019-10-28 02:00:00 12.1 0 Calma 5 Este 0 -- -- 71
2019-10-28 01:00:00 12.4 0 Calma 3 Norte 0 -- -- 68
2019-10-28 00:00:00 13.6 3 Sur 6 Noroeste 0 -- -- 65
2019-10-27 23:00:00 14.6 4 Oeste 11 Oeste 0 -- -- 61
2019-10-27 22:00:00 14.7 4 Sur 9 Sudoeste 0 -- -- 59
2019-10-27 21:00:00 15.8 5 Oeste 9 Sur 0 -- -- 55
2019-10-27 20:00:00 16.2 8 Sur 13 Sudoeste 0 -- -- 50
2019-10-27 19:00:00 18.3 10 Sur 19 Sur 0 -- -- 45
2019-10-27 18:00:00 21.1 17 Sur 27 Sudeste 0 -- -- 37
2019-10-27 17:00:00 22.9 17 Sur 27 Sur 0 -- -- 36
2019-10-27 16:00:00 23.3 20 Sur 29 Sur 0 -- -- 35
2019-10-27 15:00:00 23.5 21 Sur 33 Sudeste 0 -- -- 35
2019-10-27 14:00:00 24 17 Sur 28 Sur 0 -- -- 33
2019-10-27 13:00:00 23.4 21 Sur 30 Sur 0 -- -- 33
2019-10-27 12:00:00 22.6 21 Sur 31 Sur 0 -- -- 36
2019-10-27 11:00:00 21.6 16 Sur 28 Sur 0 -- -- 38
2019-10-27 10:00:00 17.6 6 Sudoeste 12 Sudoeste 0 -- -- 51
2019-10-27 09:00:00 13.9 0 Calma 6 Oeste 0 -- -- 62
2019-10-27 08:00:00 10.8 2 Noroeste 6 Oeste 0 -- -- 68
2019-10-27 07:00:00 10.7 0 Calma 6 Noroeste 0 -- -- 67
2019-10-27 06:00:00 10.7 4 Sudoeste 12 Sudoeste 0 -- -- 69
2019-10-27 05:00:00 10.7 3 Sudoeste 6 Oeste 0 -- -- 70
2019-10-27 04:00:00 11.6 5 Sudoeste 9 Sudoeste 0 -- -- 65
2019-10-27 03:00:00 10.8 0 Calma 6 Oeste 0 -- -- 69
2019-10-27 02:00:00 12.4 8 Sudoeste 8 Sudoeste 0 -- -- 60
2019-10-27 01:00:00 13.4 5 Sudoeste 14 Sudoeste 0 -- -- 60
2019-10-27 00:00:00 14.4 6 Sudoeste 9 Sudoeste 0 -- -- 59
2019-10-26 23:00:00 15.4 2 Sur 5 Sudeste 0 -- -- 52
2019-10-26 22:00:00 16.8 3 Sudoeste 10 Sudoeste 0 -- -- 47
2019-10-26 21:00:00 18.7 9 Sudoeste 12 Sudoeste 0 -- -- 48
2019-10-26 20:00:00 20.5 7 Sur 18 Sur 0 -- -- 39
2019-10-26 19:00:00 24.2 13 Sur 18 Sur 0 -- -- 31
2019-10-26 18:00:00 26.8 10 Sur 18 Sur 0 -- -- 26
2019-10-26 17:00:00 27.6 8 Sudoeste 16 Sudoeste 0 -- -- 24
2019-10-26 16:00:00 27.4 9 Sur 22 Sudeste 0 -- -- 25
2019-10-26 15:00:00 27.2 11 Sur 22 Sur 0 -- -- 25
2019-10-26 14:00:00 26.5 11 Sur 23 Sur 0 -- -- 26
2019-10-26 13:00:00 23.6 9 Sudoeste 13 Sudoeste 0 -- -- 36
2019-10-26 12:00:00 19.6 4 Sudoeste 7 Oeste 0 -- -- 47
2019-10-26 11:00:00 15.3 4 Sudoeste 7 Oeste 0 -- -- 56
2019-10-26 10:00:00 10.1 0 Calma 6 Sudoeste 0 -- -- 77
2019-10-26 09:00:00 7 0 Calma 5 Sudoeste 0 -- -- 85
2019-10-26 08:00:00 7.8 0 Calma 6 Norte 0 -- -- 82
2019-10-26 07:00:00 8.8 0 Calma 5 Noroeste 0 -- -- 75
2019-10-26 06:00:00 9 2 Oeste 7 Oeste 0 -- -- 75
2019-10-26 05:00:00 9.7 0 Calma 7 Sudoeste 0 -- -- 72
2019-10-26 04:00:00 10.4 3 Sur 12 Oeste 0 -- -- 70
2019-10-26 03:00:00 10.8 3 Sudoeste 10 Sudeste 0 -- -- 69
2019-10-26 02:00:00 12.3 0 Calma 13 Sudoeste 0 -- -- 63
2019-10-26 01:00:00 14 7 Sudoeste 20 Sur 0 -- -- 58
2019-10-26 00:00:00 14.1 13 Sur 20 Sur 0 -- -- 59
2019-10-25 23:00:00 14.6 8 Sudoeste 16 Sur 0 -- -- 56
2019-10-25 22:00:00 15.9 9 Sur 17 Sur 0 -- -- 51
2019-10-25 21:00:00 17 3 Sudeste 14 Sur 0 -- -- 46
2019-10-25 20:00:00 18.7 11 Sur 25 Sur 0 -- -- 43
2019-10-25 19:00:00 21.6 17 Sudeste 24 Sudeste 0 -- -- 37
2019-10-25 18:00:00 23.7 17 Sur 26 Sur 0 -- -- 33
2019-10-25 17:00:00 24.2 18 Sur 27 Sudeste 0 -- -- 31
2019-10-25 16:00:00 24.4 17 Sur 28 Sur 0 -- -- 34
2019-10-25 15:00:00 23.5 23 Sur 34 Sur 0 -- -- 34
2019-10-25 14:00:00 22.8 25 Sur 37 Sur 0 -- -- 36
2019-10-25 13:00:00 21.9 25 Sur 39 Sur 0 -- -- 38
2019-10-25 12:00:00 20.4 18 Sur 27 Sur 0 -- -- 43
2019-10-25 11:00:00 15.4 4 Sudeste 9 Sudeste 0 -- -- 68
2019-10-25 10:00:00 8.8 2 Sur 6 Oeste 0 -- -- 91
2019-10-25 09:00:00 6.1 3 Norte 4 Norte 0 -- -- 93
2019-10-25 08:00:00 5.5 0 Calma 5 Sudoeste 0 -- -- 92
2019-10-25 07:00:00 6.1 0 Calma 4 Sudoeste 0 -- -- 92
2019-10-25 06:00:00 6.2 0 Calma 3 Sur 0 -- -- 92
2019-10-25 05:00:00 6.5 2 Sur 6 Sur 0 -- -- 91
2019-10-25 04:00:00 7.3 0 Calma 3 Sur 0 -- -- 91
2019-10-25 03:00:00 7.6 0 Calma 5 Sudoeste 0 -- -- 90
2019-10-25 02:00:00 7.6 5 Sur 10 Sur 0 -- -- 89
2019-10-25 01:00:00 8.8 2 Nordeste 8 Norte 0 -- -- 86
2019-10-25 00:00:00 9.2 4 Norte 7 Sur 0 -- -- 86
2019-10-24 23:00:00 9.7 5 Sur 8 Norte 0 -- -- 85
2019-10-24 22:00:00 11.3 4 Norte 6 Norte 0 -- -- 78
2019-10-24 21:00:00 13.1 2 Nordeste 6 Norte 0 -- -- 68
2019-10-24 20:00:00 14.5 5 Norte 12 Norte 0 -- -- 62
2019-10-24 19:00:00 16.8 9 Norte 18 Noroeste 0 -- -- 53
2019-10-24 18:00:00 17.6 12 Norte 21 Norte 0 -- -- 50
2019-10-24 17:00:00 17.7 14 Norte 27 Norte 0 -- -- 51
2019-10-24 16:00:00 17.5 14 Norte 24 Norte 0 -- -- 54
2019-10-24 15:00:00 16.6 6 Noroeste 18 Norte 0 -- -- 59
2019-10-24 14:00:00 15.8 10 Norte 17 Oeste 0 -- -- 61
2019-10-24 13:00:00 14.8 5 Norte 11 Norte 0 -- -- 66
2019-10-24 12:00:00 13.1 5 Noroeste 14 Noroeste 0 -- -- 73
2019-10-24 11:00:00 11.8 9 Noroeste 19 Noroeste 0 -- -- 81
2019-10-24 10:00:00 10.5 10 Noroeste 19 Noroeste 0 -- -- 87
2019-10-24 09:00:00 9 14 Noroeste 21 Noroeste 0 -- -- 90
2019-10-24 08:00:00 8.9 11 Noroeste 14 Oeste 0 -- -- 90
2019-10-24 07:00:00 9.8 7 Noroeste 12 Oeste 0 -- -- 88
2019-10-24 06:00:00 10 5 Noroeste 21 Oeste 0 -- -- 89
2019-10-24 05:00:00 10.1 9 Oeste 17 Oeste 0 -- -- 86
2019-10-24 04:00:00 10.7 10 Oeste 21 Oeste 0 -- -- 83
2019-10-24 03:00:00 11.7 15 Oeste 28 Oeste 0 -- -- 80
2019-10-24 02:00:00 12.5 16 Oeste 30 Oeste 0 -- -- 72
2019-10-24 01:00:00 12.5 11 Oeste 26 Oeste 0 -- -- 75
2019-10-24 00:00:00 12.2 15 Oeste 21 Oeste 0 -- -- 82
2019-10-23 23:00:00 12.1 11 Oeste 23 Oeste 0 -- -- 84
2019-10-23 22:00:00 12.1 11 Oeste 19 Oeste 0 -- -- 87
2019-10-23 21:00:00 12.3 11 Oeste 21 Sudoeste 0 -- -- 86
2019-10-23 20:00:00 12.1 8 Sudoeste 26 Oeste 0 -- -- 88
2019-10-23 19:00:00 12.3 14 Oeste 36 Oeste 0.8 -- -- 86
2019-10-23 18:00:00 12.7 14 Oeste 33 Oeste 0.2 -- -- 82
2019-10-23 17:00:00 12 25 Oeste 55 Oeste 2.4 -- -- 79
2019-10-23 16:00:00 15.6 26 Oeste 48 Oeste 0 -- -- 57
2019-10-23 15:00:00 15.7 26 Oeste 44 Oeste 0 -- -- 52
2019-10-23 14:00:00 16.1 21 Oeste 36 Sudoeste 0 -- -- 55
2019-10-23 13:00:00 14.8 19 Oeste 31 Sudoeste 0 -- -- 56
2019-10-23 12:00:00 14.8 12 Oeste 23 Oeste 0 -- -- 58
2019-10-23 11:00:00 13.2 7 Sudoeste 12 Sudoeste 0 -- -- 70
2019-10-23 10:00:00 10.6 0 Calma 5 Sudoeste 0 -- -- 88
2019-10-23 09:00:00 8 2 Sur 13 Oeste 0 -- -- 89
2019-10-23 08:00:00 7.9 4 Sur 9 Oeste 0 -- -- 88
2019-10-23 07:00:00 9 5 Sudeste 14 Oeste 0 -- -- 87
2019-10-23 06:00:00 10.2 10 Oeste 18 Oeste 0 -- -- 87
2019-10-23 05:00:00 9.7 3 Sur 19 Oeste 0 -- -- 81
2019-10-23 04:00:00 9.2 0 Calma 6 Sudeste 0 -- -- 83
2019-10-23 03:00:00 9.6 4 Sur 7 Sur 0 -- -- 81
2019-10-23 02:00:00 9.5 3 Este 8 Sur 0 -- -- 80
2019-10-23 01:00:00 9.7 4 Sur 13 Sur 0 -- -- 77
2019-10-23 00:00:00 10.8 7 Sur 13 Oeste 0 -- -- 71
2019-10-22 23:00:00 11.4 2 Sur 15 Noroeste 0 -- -- 67
2019-10-22 22:00:00 12.2 6 Noroeste 19 Oeste 0 -- -- 62
2019-10-22 21:00:00 12.6 10 Oeste 26 Oeste 0 -- -- 62
2019-10-22 20:00:00 13.4 10 Oeste 19 Oeste 0 -- -- 65
2019-10-22 19:00:00 14.5 10 Oeste 23 Oeste 0 -- -- 58
2019-10-22 18:00:00 14.9 14 Oeste 32 Sudoeste 0 -- -- 57
2019-10-22 17:00:00 14.4 24 Sudoeste 44 Sudoeste 0 -- -- 57
2019-10-22 16:00:00 17 9 Noroeste 21 Norte 0 -- -- 45
2019-10-22 15:00:00 17.1 10 Noroeste 23 Noroeste 0 -- -- 44
2019-10-22 14:00:00 17.4 14 Norte 27 Noroeste 0 -- -- 46
2019-10-22 13:00:00 16.7 12 Norte 19 Norte 0 -- -- 53
2019-10-22 12:00:00 15.1 6 Sudoeste 9 Sudoeste 0 -- -- 57
2019-10-22 11:00:00 12.9 0 Calma 9 Sur 0 -- -- 73
2019-10-22 10:00:00 9.2 6 Sur 12 Sur 0 -- -- 93
2019-10-22 09:00:00 7.1 0 Calma 6 Noroeste 0 -- -- 92
2019-10-22 08:00:00 7.4 3 Noroeste 6 Este 0 -- -- 90
2019-10-22 07:00:00 8.5 0 Calma 3 Sudeste 0 -- -- 90
2019-10-22 06:00:00 9.2 0 Calma -- -- 0 -- -- 89
2019-10-22 05:00:00 9.6 0 Calma 3 Sur 0 -- -- 87
2019-10-22 04:00:00 10 3 Sudoeste 10 Sudeste 0 -- -- 85
2019-10-22 03:00:00 10.2 2 Oeste 4 Oeste 0 -- -- 88
2019-10-22 02:00:00 10.4 4 Sudeste 6 Sudeste 0 -- -- 86
2019-10-22 01:00:00 10.7 4 Norte 5 Norte 0 -- -- 84
2019-10-22 00:00:00 11.5 2 Sudoeste 8 Este 0 -- -- 79
2019-10-21 23:00:00 12.1 5 Nordeste 7 Noroeste 0 -- -- 72
2019-10-21 22:00:00 13.2 5 Noroeste 6 Oeste 0 -- -- 70
2019-10-21 21:00:00 14.2 4 Sudoeste 9 Norte 0 -- -- 67
2019-10-21 20:00:00 14.8 5 Norte 10 Noroeste 0 -- -- 62
2019-10-21 19:00:00 17.2 8 Norte 15 Noroeste 0 -- -- 52
2019-10-21 18:00:00 18.7 7 Noroeste 14 Norte 0 -- -- 43
2019-10-21 17:00:00 19.3 2 Nordeste 13 Noroeste 0 -- -- 42
2019-10-21 16:00:00 19.3 8 Noroeste 31 Sur 0 -- -- 43
2019-10-21 15:00:00 19 4 Oeste 13 Sudoeste 0 -- -- 44
2019-10-21 14:00:00 18.1 5 Sudeste 10 Nordeste 0 -- -- 48
2019-10-21 13:00:00 16.6 5 Sudoeste 10 Oeste 0 -- -- 56
2019-10-21 12:00:00 14.2 3 Sur 6 Sudoeste 0 -- -- 73
2019-10-21 11:00:00 11.2 2 Oeste 5 Oeste 0 -- -- 81
2019-10-21 10:00:00 8.2 3 Sudoeste 5 Sudoeste 0 -- -- 92
2019-10-21 09:00:00 6.7 0 Calma 4 Noroeste 0 -- -- 93
2019-10-21 08:00:00 6.6 2 Sudeste 3 Sur 0 -- -- 92
2019-10-21 07:00:00 7.2 2 Sudeste 6 Sudeste 0 -- -- 90
2019-10-21 06:00:00 8 2 Oeste 3 Sudoeste 0 -- -- 90
2019-10-21 05:00:00 8.3 0 Calma 5 Sur 0 -- -- 89
2019-10-21 04:00:00 9 4 Sudeste 6 Sudeste 0 -- -- 88
2019-10-21 03:00:00 9.3 3 Noroeste 6 Noroeste 0 -- -- 86
2019-10-21 02:00:00 10.1 3 Noroeste 13 Sudoeste 0 -- -- 82
2019-10-21 01:00:00 10.7 7 Sur 10 Sur 0 -- -- 79
2019-10-21 00:00:00 11.4 3 Sur 11 Oeste 0 -- -- 76
2019-10-20 23:00:00 12 0 Calma 8 Sudoeste 0 -- -- 72
2019-10-20 22:00:00 12.5 2 Oeste 9 Noroeste 0 -- -- 69
2019-10-20 21:00:00 13 4 Oeste 14 Sudoeste 0 -- -- 67
2019-10-20 20:00:00 14.5 9 Oeste 16 Oeste 0 -- -- 58
2019-10-20 19:00:00 16.3 11 Noroeste 27 Noroeste 0 -- -- 52
2019-10-20 18:00:00 17 14 Oeste 34 Oeste 0 -- -- 49
2019-10-20 17:00:00 17.2 15 Oeste 32 Oeste 0 -- -- 47
2019-10-20 16:00:00 16.8 16 Oeste 29 Oeste 0 -- -- 52
2019-10-20 15:00:00 16.9 15 Oeste 28 Oeste 0 -- -- 56
2019-10-20 14:00:00 16 17 Oeste 31 Oeste 0 -- -- 56
2019-10-20 13:00:00 15.1 14 Oeste 28 Oeste 0 -- -- 66
2019-10-20 12:00:00 14.6 17 Oeste 30 Oeste 0 -- -- 68
2019-10-20 11:00:00 13.7 16 Oeste 27 Oeste 0 -- -- 75
2019-10-20 10:00:00 12.6 6 Sur 10 Sudoeste 0 -- -- 86
2019-10-20 09:00:00 11.6 4 Sudoeste 12 Oeste 0 -- -- 87
2019-10-20 08:00:00 11.9 3 Oeste 13 Oeste 0 -- -- 84
2019-10-20 07:00:00 12.4 6 Noroeste 18 Sudoeste 0 -- -- 83
2019-10-20 06:00:00 12.9 10 Sudoeste 26 Oeste 0 -- -- 81
2019-10-20 05:00:00 13.2 17 Oeste 26 Oeste 0.4 -- -- 85
2019-10-20 04:00:00 13.8 8 Sudoeste 13 Sur 0 -- -- 84
2019-10-20 03:00:00 14.1 6 Oeste 36 Oeste 0 -- -- 86
2019-10-20 02:00:00 14.2 15 Oeste 33 Sudoeste 0.4 -- -- 85
2019-10-20 01:00:00 14.4 20 Oeste 39 Oeste 6.6 -- -- 90
2019-10-20 00:00:00 17.1 18 Oeste 34 Sudoeste 1 -- -- 86
2019-10-19 23:00:00 19.5 24 Sudoeste 51 Sudoeste 0 -- -- 68
2019-10-19 22:00:00 19.7 28 Sur 40 Sur 0 -- -- 63
2019-10-19 21:00:00 19.8 22 Sudoeste 34 Sudoeste 0 -- -- 65
2019-10-19 20:00:00 20.5 20 Sur 39 Sudoeste 0 -- -- 62
2019-10-19 19:00:00 21.5 23 Sudoeste 43 Sudoeste 0 -- -- 57
2019-10-19 18:00:00 22.6 31 Sudoeste 42 Sudoeste 0 -- -- 54
2019-10-19 17:00:00 22.7 19 Sudoeste 31 Sudoeste 0 -- -- 52
2019-10-19 16:00:00 22.2 17 Sudoeste 33 Oeste 0 -- -- 51
2019-10-19 15:00:00 22.7 20 Oeste 34 Noroeste 0 -- -- 48
2019-10-19 14:00:00 22.4 14 Oeste 31 Sudoeste 0 -- -- 52
2019-10-19 13:00:00 22 15 Sudoeste 25 Sudoeste 0 -- -- 57
2019-10-19 12:00:00 21.6 8 Sur 17 Sur 0 -- -- 62
2019-10-19 11:00:00 18.3 5 Sur 12 Sur 0 -- -- 78
2019-10-19 10:00:00 15.2 4 Sur 9 Sudoeste 0 -- -- 91
2019-10-19 09:00:00 12.9 5 Oeste 9 Sudoeste 0 -- -- 93
2019-10-19 08:00:00 12 0 Calma 6 Sudeste 0 -- -- 92
2019-10-19 07:00:00 11.8 4 Nordeste 9 Noroeste 0 -- -- 92
2019-10-19 06:00:00 12.6 2 Este 3 Nordeste 0 -- -- 91
2019-10-19 05:00:00 13.4 0 Calma 6 Noroeste 0 -- -- 89
2019-10-19 04:00:00 14.5 3 Este 8 Oeste 0 -- -- 90
2019-10-19 03:00:00 15.1 2 Sur 6 Nordeste 0 -- -- 89
2019-10-19 02:00:00 15.5 5 Nordeste 8 Nordeste 0 -- -- 88
2019-10-19 01:00:00 16.5 5 Sudeste 13 Oeste 0 -- -- 82
2019-10-19 00:00:00 17 6 Oeste 13 Noroeste 0 -- -- 83
2019-10-18 23:00:00 17.9 4 Este 7 Noroeste 0 -- -- 80
2019-10-18 22:00:00 18.7 4 Noroeste 12 Noroeste 0 -- -- 76
2019-10-18 21:00:00 19.1 10 Noroeste 13 Noroeste 0 -- -- 69
2019-10-18 20:00:00 20.8 10 Noroeste 18 Noroeste 0 -- -- 62
2019-10-18 19:00:00 22.7 14 Noroeste 23 Noroeste 0 -- -- 57
2019-10-18 18:00:00 24.2 13 Noroeste 24 Oeste 0 -- -- 53
2019-10-18 17:00:00 24.5 11 Oeste 20 Oeste 0 -- -- 51
2019-10-18 16:00:00 24 10 Noroeste 21 Noroeste 0 -- -- 53
2019-10-18 15:00:00 23.9 9 Oeste 32 Oeste 0 -- -- 54
2019-10-18 14:00:00 22.8 13 Noroeste 22 Noroeste 0 -- -- 56
2019-10-18 13:00:00 21.9 6 Oeste 15 Oeste 0 -- -- 58
2019-10-18 12:00:00 19.4 3 Sudoeste 6 Sudoeste 0 -- -- 63
2019-10-18 11:00:00 15.8 3 Sudoeste 5 Sudoeste 0 -- -- 58
2019-10-18 10:00:00 12.7 0 Calma 3 Oeste 0 -- -- 69
2019-10-18 09:00:00 9.9 0 Calma 4 Noroeste 0 -- -- 78
2019-10-18 08:00:00 9.3 4 Sur 6 Sudeste 0 -- -- 77
2019-10-18 07:00:00 10 0 Calma 4 Norte 0 -- -- 76
2019-10-18 06:00:00 10.6 0 Calma 2 Sudeste 0 -- -- 74
2019-10-18 05:00:00 10.8 0 Calma 3 Oeste 0 -- -- 71
2019-10-18 04:00:00 10.9 2 Sudoeste 6 Sudeste 0 -- -- 69
2019-10-18 03:00:00 12.1 2 Sudeste 6 Sudeste 0 -- -- 66
2019-10-18 02:00:00 12.3 2 Sudeste 10 Sudeste 0 -- -- 67
2019-10-18 01:00:00 13.4 6 Sudeste 7 Sudeste 0 -- -- 61
2019-10-18 00:00:00 14.9 4 Nordeste 8 Este 0 -- -- 56